Time;durP1;ratioP1;P1;durP2;ratioP2;P2;SDS_P1;SDS_P2;PMS_P1;PMS_P2;Temp;Humidity;BMP_temperature;BMP_pressure;BME280_temperature;BME280_humidity;BME280_pressure;Samples;Min_cycle;Max_cycle;Signal;HPM_P1;HPM_P2
2022/01/07 00:02:18;;;;;;;;;;;-2.10;98.90;;;;;;5062545;28;19951;-67
2022/01/07 00:04:43;;;;;;;;;;;-2.00;98.70;;;;;;5062254;28;19980;-67
2022/01/07 00:07:09;;;;;;;;;;;-2.00;98.40;;;;;;5062590;28;19999;-67
2022/01/07 00:09:36;;;;;;;;;;;-2.00;98.70;;;;;;5062146;28;19928;-67
2022/01/07 00:12:04;;;;;;;;;;;-2.00;99.00;;;;;;5062377;28;19908;-67
2022/01/07 00:14:29;;;;;;;;;;;-2.00;99.20;;;;;;5076901;23;20271;-67
2022/01/07 00:16:55;;;;;;;;;;;-2.00;99.20;;;;;;5062547;28;19909;-67
2022/01/07 00:19:21;;;;;;;;;;;-2.00;99.20;;;;;;5062672;28;20266;-68
2022/01/07 00:21:46;;;;;;;;;;;-1.90;99.30;;;;;;5061651;28;19908;-67
2022/01/07 00:24:12;;;;;;;;;;;-2.00;99.20;;;;;;5062545;28;19916;-67
2022/01/07 00:26:38;;;;;;;;;;;-2.00;99.20;;;;;;5064229;28;20112;-68
2022/01/07 00:29:03;;;;;;;;;;;-2.00;99.20;;;;;;5066317;28;19915;-66
2022/01/07 00:31:29;;;;;;;;;;;-2.00;99.20;;;;;;5066788;28;20071;-67
2022/01/07 00:33:55;;;;;;;;;;;-2.10;99.20;;;;;;5066513;28;20249;-67
2022/01/07 00:36:20;;;;;;;;;;;-2.00;99.20;;;;;;5066439;28;19931;-68
2022/01/07 00:38:46;;;;;;;;;;;-2.00;99.00;;;;;;5066544;28;19980;-68
2022/01/07 00:41:12;;;;;;;;;;;-2.00;98.90;;;;;;5066451;28;20001;-68
2022/01/07 00:43:37;;;;;;;;;;;-2.10;98.90;;;;;;5056186;28;19980;-69
2022/01/07 00:46:03;;;;;;;;;;;-2.10;98.80;;;;;;5046164;28;19909;-68
2022/01/07 00:48:29;;;;;;;;;;;-2.20;98.80;;;;;;5046353;28;20200;-68
2022/01/07 00:50:54;;;;;;;;;;;-2.20;98.80;;;;;;5046189;28;19913;-68
2022/01/07 00:53:20;;;;;;;;;;;-2.20;98.80;;;;;;5046177;28;19909;-68
2022/01/07 00:55:46;;;;;;;;;;;-2.20;98.90;;;;;;5046004;28;19909;-68
2022/01/07 00:58:11;;;;;;;;;;;-2.20;98.90;;;;;;5046209;28;20262;-68
2022/01/07 01:00:37;;;;;;;;;;;-2.20;98.90;;;;;;5046163;28;19909;-68
2022/01/07 01:03:03;;;;;;;;;;;-2.20;98.90;;;;;;5044869;28;19980;-68
2022/01/07 01:05:28;;;;;;;;;;;-2.20;98.90;;;;;;5045683;28;19909;-68
2022/01/07 01:07:54;;;;;;;;;;;-2.30;98.80;;;;;;5044897;28;19913;-68
2022/01/07 01:10:22;;;;;;;;;;;-2.30;98.80;;;;;;5044828;28;19913;-68
2022/01/07 01:12:48;;;;;;;;;;;-2.20;98.90;;;;;;5044326;28;19979;-68
2022/01/07 01:15:15;;;;;;;;;;;-2.30;98.90;;;;;;5045644;28;19909;-67
2022/01/07 01:17:41;;;;;;;;;;;-2.20;98.90;;;;;;5044694;28;20331;-68
2022/01/07 01:20:08;;;;;;;;;;;-2.10;98.60;;;;;;5045726;28;19976;-68
2022/01/07 01:22:34;;;;;;;;;;;-2.20;98.30;;;;;;5028132;28;19909;-67
2022/01/07 01:25:00;;;;;;;;;;;-2.20;98.50;;;;;;5044405;28;20112;-68
2022/01/07 01:27:26;;;;;;;;;;;-2.20;98.50;;;;;;5045672;28;19980;-68
2022/01/07 01:29:52;;;;;;;;;;;-2.20;98.40;;;;;;5044351;28;19913;-69
2022/01/07 01:32:18;;;;;;;;;;;-2.20;98.40;;;;;;5045531;28;19909;-68
2022/01/07 01:34:43;;;;;;;;;;;-2.20;98.60;;;;;;5044712;28;19931;-68
2022/01/07 01:37:09;;;;;;;;;;;-2.20;99.20;;;;;;5044294;28;19939;-68
2022/01/07 01:39:35;;;;;;;;;;;-2.20;99.30;;;;;;5045635;28;19937;-68
2022/01/07 01:42:00;;;;;;;;;;;-2.20;99.50;;;;;;5045305;28;20285;-68
2022/01/07 01:44:26;;;;;;;;;;;-2.10;99.40;;;;;;5044930;28;19909;-68
2022/01/07 01:46:52;;;;;;;;;;;-2.10;99.40;;;;;;5045362;28;19909;-68
2022/01/07 01:49:18;;;;;;;;;;;-2.10;99.50;;;;;;5045264;28;19915;-68
2022/01/07 01:51:43;;;;;;;;;;;-2.00;99.40;;;;;;5044226;28;19947;-68
2022/01/07 01:54:09;;;;;;;;;;;-2.10;99.20;;;;;;5045056;28;20212;-68
2022/01/07 01:56:35;;;;;;;;;;;-2.10;99.50;;;;;;5044031;28;19981;-68
2022/01/07 01:59:00;;;;;;;;;;;-2.20;99.50;;;;;;5044991;28;19916;-68
2022/01/07 02:01:26;;;;;;;;;;;-2.20;99.60;;;;;;5045269;28;19980;-68
2022/01/07 02:03:52;;;;;;;;;;;-2.20;99.60;;;;;;5045156;28;20250;-68
2022/01/07 02:06:17;;;;;;;;;;;-2.20;99.70;;;;;;5044107;28;19976;-68
2022/01/07 02:08:43;;;;;;;;;;;-2.30;99.70;;;;;;5045008;28;19917;-68
2022/01/07 02:11:09;;;;;;;;;;;-2.30;99.80;;;;;;5044904;28;19952;-68
2022/01/07 02:13:34;;;;;;;;;;;-2.30;99.80;;;;;;5044527;28;19919;-68
2022/01/07 02:16:00;;;;;;;;;;;-2.30;99.80;;;;;;5044673;28;20124;-69
2022/01/07 02:18:26;;;;;;;;;;;-2.30;99.70;;;;;;5044855;28;19925;-68
2022/01/07 02:20:51;;;;;;;;;;;-2.30;99.60;;;;;;5050005;28;19917;-68
2022/01/07 02:23:17;;;;;;;;;;;-2.30;99.50;;;;;;5052879;28;19909;-68
2022/01/07 02:25:44;;;;;;;;;;;-2.30;99.30;;;;;;5060124;28;19908;-68
2022/01/07 02:28:10;;;;;;;;;;;-2.30;99.20;;;;;;5064407;28;19913;-68
2022/01/07 02:30:35;;;;;;;;;;;-2.40;99.30;;;;;;5034389;28;19924;-68
2022/01/07 02:33:01;;;;;;;;;;;-2.30;99.40;;;;;;5056439;28;19908;-67
2022/01/07 02:35:28;;;;;;;;;;;-2.40;99.40;;;;;;5055619;28;20239;-68
2022/01/07 02:37:54;;;;;;;;;;;-2.40;99.50;;;;;;5044588;28;20132;-68
2022/01/07 02:40:20;;;;;;;;;;;-2.40;99.60;;;;;;5044488;28;19932;-68
2022/01/07 02:42:45;;;;;;;;;;;-2.40;99.50;;;;;;5044475;28;19909;-68
2022/01/07 02:45:11;;;;;;;;;;;-2.40;99.40;;;;;;5043951;28;19909;-68
2022/01/07 02:47:49;;;;;;;;;;;-2.30;99.40;;;;;;5044265;28;19956;-67
2022/01/07 02:50:20;;;;;;;;;;;-2.30;99.30;;;;;;5043574;28;19913;-66
2022/01/07 02:52:46;;;;;;;;;;;-2.30;99.20;;;;;;5044084;28;19938;-67
2022/01/07 02:55:12;;;;;;;;;;;-2.30;99.10;;;;;;5043810;28;19916;-67
2022/01/07 02:57:37;;;;;;;;;;;-2.40;99.20;;;;;;5044087;28;20112;-67
2022/01/07 03:00:05;;;;;;;;;;;-2.40;99.20;;;;;;5043721;28;19916;-66
2022/01/07 03:02:31;;;;;;;;;;;-2.40;99.20;;;;;;5043983;28;19910;-69
2022/01/07 03:04:56;;;;;;;;;;;-2.40;99.30;;;;;;5042541;28;19952;-67
2022/01/07 03:07:22;;;;;;;;;;;-2.40;99.40;;;;;;5043026;28;19909;-67
2022/01/07 03:09:48;;;;;;;;;;;-2.40;99.40;;;;;;5043771;28;19920;-66
2022/01/07 03:12:13;;;;;;;;;;;-2.30;99.40;;;;;;5043637;28;20222;-67
2022/01/07 03:14:39;;;;;;;;;;;-2.30;99.30;;;;;;5043229;28;19909;-68
2022/01/07 03:17:05;;;;;;;;;;;-2.30;99.30;;;;;;5043633;28;19909;-67
2022/01/07 03:19:30;;;;;;;;;;;-2.30;99.40;;;;;;5043692;28;19968;-68
2022/01/07 03:21:56;;;;;;;;;;;-2.30;99.40;;;;;;5043592;28;20209;-68
2022/01/07 03:24:22;;;;;;;;;;;-2.20;99.40;;;;;;5043195;28;19916;-68
2022/01/07 03:26:47;;;;;;;;;;;-2.20;99.10;;;;;;5043453;28;19981;-68
2022/01/07 03:29:13;;;;;;;;;;;-2.20;99.10;;;;;;5043112;28;19909;-68
2022/01/07 03:31:39;;;;;;;;;;;-2.10;99.10;;;;;;5043363;28;19928;-67
2022/01/07 03:34:04;;;;;;;;;;;-2.10;98.90;;;;;;5033975;28;19913;-68
2022/01/07 03:36:30;;;;;;;;;;;-2.10;99.00;;;;;;5036081;28;19980;-69
2022/01/07 03:38:57;;;;;;;;;;;-2.10;99.00;;;;;;5032437;28;19952;-70
2022/01/07 03:41:23;;;;;;;;;;;-2.00;98.90;;;;;;5032835;28;19921;-69
2022/01/07 03:43:49;;;;;;;;;;;-2.00;99.00;;;;;;5033764;28;19925;-67
2022/01/07 03:46:14;;;;;;;;;;;-2.10;99.00;;;;;;5031929;28;19917;-68
2022/01/07 03:48:40;;;;;;;;;;;-2.10;99.30;;;;;;5033215;28;19909;-67
2022/01/07 03:51:06;;;;;;;;;;;-2.10;99.30;;;;;;5041941;28;19913;-67
2022/01/07 03:53:31;;;;;;;;;;;-2.20;99.40;;;;;;5043071;28;19909;-67
2022/01/07 03:55:57;;;;;;;;;;;-2.10;99.60;;;;;;5042800;28;20255;-67
2022/01/07 03:58:23;;;;;;;;;;;-2.10;99.50;;;;;;5042886;28;19913;-67
2022/01/07 04:00:49;;;;;;;;;;;-2.00;99.20;;;;;;5041014;28;19909;-66
2022/01/07 04:03:17;;;;;;;;;;;-2.00;99.20;;;;;;5042899;28;20204;-68
2022/01/07 04:05:42;;;;;;;;;;;-2.10;99.30;;;;;;5041965;28;19932;-68
2022/01/07 04:08:08;;;;;;;;;;;-2.10;99.30;;;;;;5042883;28;20195;-68
2022/01/07 04:10:34;;;;;;;;;;;-2.00;99.20;;;;;;5041798;28;19920;-68
2022/01/07 04:13:00;;;;;;;;;;;-1.90;99.10;;;;;;5042769;28;19913;-67
2022/01/07 04:15:25;;;;;;;;;;;-1.90;99.10;;;;;;5042414;28;19949;-68
2022/01/07 04:17:52;;;;;;;;;;;-1.90;99.20;;;;;;5042893;28;19959;-68
2022/01/07 04:20:20;;;;;;;;;;;-1.90;99.10;;;;;;5036557;28;19984;-67
2022/01/07 04:22:46;;;;;;;;;;;-1.90;99.10;;;;;;5023039;28;20086;-69
2022/01/07 04:25:13;;;;;;;;;;;-1.90;99.00;;;;;;5022764;28;19915;-68
2022/01/07 04:27:39;;;;;;;;;;;-1.90;99.10;;;;;;5023170;28;20194;-68
2022/01/07 04:30:05;;;;;;;;;;;-1.90;99.10;;;;;;5022792;28;20314;-67
2022/01/07 04:32:31;;;;;;;;;;;-1.90;99.00;;;;;;5022933;28;19909;-67
2022/01/07 04:34:57;;;;;;;;;;;-2.00;99.00;;;;;;5022730;28;20216;-69
2022/01/07 04:37:22;;;;;;;;;;;-2.00;99.10;;;;;;5039946;28;19948;-67
2022/01/07 04:39:48;;;;;;;;;;;-2.00;99.10;;;;;;5041625;28;19952;-67
2022/01/07 04:42:14;;;;;;;;;;;-2.10;99.30;;;;;;5042634;28;20247;-69
2022/01/07 04:44:41;;;;;;;;;;;-2.00;99.30;;;;;;5042462;28;19936;-69
2022/01/07 04:47:07;;;;;;;;;;;-2.00;99.20;;;;;;5042604;28;19915;-69
2022/01/07 04:49:33;;;;;;;;;;;-2.00;99.00;;;;;;5042380;28;20231;-69
2022/01/07 04:51:59;;;;;;;;;;;-1.90;98.80;;;;;;5041526;28;19913;-68
2022/01/07 04:54:25;;;;;;;;;;;-1.90;98.80;;;;;;5041840;28;20246;-66
2022/01/07 04:56:50;;;;;;;;;;;-1.90;98.80;;;;;;5042505;28;19909;-69
2022/01/07 04:59:16;;;;;;;;;;;-1.80;98.80;;;;;;5042483;28;19909;-69
2022/01/07 05:01:42;;;;;;;;;;;-1.80;98.70;;;;;;5042527;28;20086;-69
2022/01/07 05:04:07;;;;;;;;;;;-1.80;98.50;;;;;;5042160;28;19978;-69
2022/01/07 05:09:01;;;;;;;;;;;-1.80;98.50;;;;;;5042150;28;19913;-67
2022/01/07 05:11:28;;;;;;;;;;;-1.70;98.60;;;;;;5042258;28;20089;-67
2022/01/07 05:13:54;;;;;;;;;;;-1.80;98.60;;;;;;5045486;28;19913;-67
2022/01/07 05:16:20;;;;;;;;;;;-1.80;98.70;;;;;;5045660;28;19909;-67
2022/01/07 05:18:45;;;;;;;;;;;-1.80;98.70;;;;;;5045865;28;19940;-67
2022/01/07 05:21:11;;;;;;;;;;;-1.80;98.70;;;;;;5045894;28;19909;-67
2022/01/07 05:23:37;;;;;;;;;;;-1.80;98.80;;;;;;5045485;28;19976;-68
2022/01/07 05:26:04;;;;;;;;;;;-1.90;99.00;;;;;;5045557;28;19959;-68
2022/01/07 05:28:30;;;;;;;;;;;-1.90;99.00;;;;;;5045750;28;19945;-67
2022/01/07 05:30:56;;;;;;;;;;;-1.90;99.00;;;;;;5045621;28;19936;-67
2022/01/07 05:33:21;;;;;;;;;;;-1.80;98.90;;;;;;5045499;28;19940;-67
2022/01/07 05:35:47;;;;;;;;;;;-1.80;98.90;;;;;;5045219;28;19909;-67
2022/01/07 05:38:13;;;;;;;;;;;-1.80;98.80;;;;;;5044579;28;19979;-67
2022/01/07 05:40:38;;;;;;;;;;;-1.80;98.90;;;;;;5044352;28;19909;-67
2022/01/07 05:43:04;;;;;;;;;;;-1.80;98.80;;;;;;5045477;28;19909;-68
2022/01/07 05:45:30;;;;;;;;;;;-1.80;98.80;;;;;;5045173;28;20166;-67
2022/01/07 05:47:55;;;;;;;;;;;-1.90;98.90;;;;;;5045310;28;19988;-67
2022/01/07 05:50:22;;;;;;;;;;;-1.80;98.90;;;;;;5045323;28;20368;-67
2022/01/07 05:52:47;;;;;;;;;;;-1.80;98.80;;;;;;5045215;28;19909;-67
2022/01/07 05:55:13;;;;;;;;;;;-1.80;98.80;;;;;;5044787;28;20199;-66
2022/01/07 05:57:39;;;;;;;;;;;-1.70;98.80;;;;;;5045188;28;20119;-67
2022/01/07 06:00:06;;;;;;;;;;;-1.80;98.80;;;;;;5045248;28;20208;-67
2022/01/07 06:02:32;;;;;;;;;;;-1.80;98.80;;;;;;5045031;28;19991;-68
2022/01/07 06:04:57;;;;;;;;;;;-1.80;98.80;;;;;;5044902;28;20331;-68
2022/01/07 06:07:23;;;;;;;;;;;-1.70;98.70;;;;;;5044385;28;19916;-67
2022/01/07 06:09:49;;;;;;;;;;;-1.70;98.70;;;;;;5044676;28;19913;-67
2022/01/07 06:12:14;;;;;;;;;;;-1.70;98.70;;;;;;5044839;28;19909;-67
2022/01/07 06:14:40;;;;;;;;;;;-1.80;98.80;;;;;;5071983;23;19920;-67
2022/01/07 06:17:08;;;;;;;;;;;-1.70;98.80;;;;;;5063036;28;19979;-68
2022/01/07 06:19:34;;;;;;;;;;;-1.80;98.80;;;;;;5063110;28;20004;-67
2022/01/07 06:22:00;;;;;;;;;;;-1.80;98.90;;;;;;5063280;28;20207;-68
2022/01/07 06:24:25;;;;;;;;;;;-1.80;98.90;;;;;;5063249;28;19980;-68
2022/01/07 06:26:51;;;;;;;;;;;-1.80;98.80;;;;;;5063444;28;19916;-68
2022/01/07 06:29:17;;;;;;;;;;;-1.80;98.80;;;;;;5064343;28;20258;-68
2022/01/07 06:31:42;;;;;;;;;;;-1.80;98.80;;;;;;5064441;28;19915;-68
2022/01/07 06:34:08;;;;;;;;;;;-1.80;98.90;;;;;;5064127;28;20068;-68
2022/01/07 06:36:34;;;;;;;;;;;-1.80;98.80;;;;;;5064183;28;19908;-67
2022/01/07 06:38:59;;;;;;;;;;;-1.80;98.80;;;;;;5064296;28;19909;-67
2022/01/07 06:41:25;;;;;;;;;;;-1.80;98.80;;;;;;5063655;28;19952;-67
2022/01/07 06:43:51;;;;;;;;;;;-1.80;98.80;;;;;;5064322;28;19976;-67
2022/01/07 06:46:17;;;;;;;;;;;-1.70;98.80;;;;;;5063827;28;19915;-67
2022/01/07 06:48:43;;;;;;;;;;;-1.70;98.80;;;;;;5064361;28;19947;-67
2022/01/07 06:51:09;;;;;;;;;;;-1.70;98.80;;;;;;5063744;28;19932;-67
2022/01/07 06:53:35;;;;;;;;;;;-1.70;98.90;;;;;;5063734;28;20273;-68
2022/01/07 06:56:01;;;;;;;;;;;-1.60;98.90;;;;;;5063719;28;19932;-67
2022/01/07 06:58:27;;;;;;;;;;;-1.60;98.90;;;;;;5064001;28;19915;-67
2022/01/07 07:00:53;;;;;;;;;;;-1.60;98.90;;;;;;5063558;28;19916;-68
2022/01/07 07:03:19;;;;;;;;;;;-1.60;99.00;;;;;;5062580;28;19909;-67
2022/01/07 07:05:44;;;;;;;;;;;-1.50;99.00;;;;;;5063641;28;19948;-66
2022/01/07 07:08:10;;;;;;;;;;;-1.50;98.90;;;;;;5063537;28;19913;-67
2022/01/07 07:10:36;;;;;;;;;;;-1.50;98.80;;;;;;5063356;28;19923;-67
2022/01/07 07:13:01;;;;;;;;;;;-1.40;99.10;;;;;;5063557;28;20219;-66
2022/01/07 07:15:27;;;;;;;;;;;-1.40;98.90;;;;;;5063139;28;19919;-67
2022/01/07 07:17:53;;;;;;;;;;;-1.40;98.90;;;;;;5047286;28;19935;-66
2022/01/07 07:20:19;;;;;;;;;;;-1.30;98.80;;;;;;5043638;28;19980;-67
2022/01/07 07:22:44;;;;;;;;;;;-1.30;99.00;;;;;;5043597;28;19967;-67
2022/01/07 07:25:10;;;;;;;;;;;-1.30;99.00;;;;;;5043201;28;19915;-66
2022/01/07 07:27:36;;;;;;;;;;;-1.30;98.90;;;;;;5043702;28;19916;-66
2022/01/07 07:30:05;;;;;;;;;;;-1.20;98.90;;;;;;5043407;28;19952;-66
2022/01/07 07:32:31;;;;;;;;;;;-1.20;98.90;;;;;;5042687;28;20211;-66
2022/01/07 07:36:26;;;;;;;;;;;-1.10;98.90;;;;;;5042813;28;19928;-67
2022/01/07 07:37:49;;;;;;;;;;;-1.10;99.00;;;;;;5043278;28;19909;-67
2022/01/07 07:40:14;;;;;;;;;;;-1.10;99.10;;;;;;5042528;28;19909;-68
2022/01/07 07:42:41;;;;;;;;;;;-1.00;98.90;;;;;;5057593;28;20116;-68
2022/01/07 07:45:07;;;;;;;;;;;-1.00;98.80;;;;;;5062797;28;19972;-67
2022/01/07 07:47:34;;;;;;;;;;;-0.90;98.80;;;;;;5063237;28;19909;-67
2022/01/07 07:49:59;;;;;;;;;;;-0.90;98.70;;;;;;5062086;28;19913;-67
2022/01/07 07:52:25;;;;;;;;;;;-0.80;98.70;;;;;;5063303;28;19916;-67
2022/01/07 07:54:51;;;;;;;;;;;-0.80;98.60;;;;;;5062126;28;19908;-67
2022/01/07 07:57:16;;;;;;;;;;;-0.80;98.50;;;;;;5063388;28;19916;-66
2022/01/07 07:59:42;;;;;;;;;;;-0.70;98.50;;;;;;5062900;28;19909;-66
2022/01/07 08:02:09;;;;;;;;;;;-0.70;98.40;;;;;;5063272;28;19984;-67
2022/01/07 08:04:37;;;;;;;;;;;-0.70;98.30;;;;;;5061685;28;19908;-67
2022/01/07 08:07:03;;;;;;;;;;;-0.70;98.30;;;;;;5062709;28;19931;-67
2022/01/07 08:09:33;;;;;;;;;;;-0.50;98.30;;;;;;5061935;28;19908;-66
2022/01/07 08:12:05;;;;;;;;;;;-0.60;98.30;;;;;;5062920;28;20261;-67
2022/01/07 08:17:15;;;;;;;;;;;-0.50;98.20;;;;;;5062835;28;19915;-66
2022/01/07 08:19:41;;;;;;;;;;;-0.50;98.20;;;;;;5062715;28;19908;-67
2022/01/07 08:22:08;;;;;;;;;;;-0.50;98.30;;;;;;5062737;28;19940;-67
2022/01/07 08:24:34;;;;;;;;;;;-0.50;98.30;;;;;;5061534;28;19916;-67
2022/01/07 08:27:01;;;;;;;;;;;-0.40;98.10;;;;;;5061752;28;19909;-67
2022/01/07 08:29:31;;;;;;;;;;;-0.40;98.10;;;;;;5062236;28;20160;-67
2022/01/07 08:34:53;;;;;;;;;;;-0.30;97.90;;;;;;5062385;28;19951;-67
2022/01/07 08:37:26;;;;;;;;;;;-0.40;98.00;;;;;;5062635;28;19987;-67
2022/01/07 08:39:53;;;;;;;;;;;-0.30;98.00;;;;;;5061355;28;19912;-68
2022/01/07 08:42:20;;;;;;;;;;;-0.30;98.10;;;;;;5062849;28;19909;-68
2022/01/07 08:44:46;;;;;;;;;;;-0.30;97.90;;;;;;5060926;28;20306;-68
2022/01/07 08:47:12;;;;;;;;;;;-0.20;98.10;;;;;;5063158;28;19913;-67
2022/01/07 08:49:37;;;;;;;;;;;-0.20;97.90;;;;;;5066342;28;19971;-67
2022/01/07 08:52:03;;;;;;;;;;;-0.20;98.10;;;;;;5066389;28;20203;-67
2022/01/07 08:54:29;;;;;;;;;;;-0.10;97.80;;;;;;5066070;28;19924;-68
2022/01/07 08:56:55;;;;;;;;;;;-0.10;97.60;;;;;;5066328;28;20253;-68
2022/01/07 08:59:21;;;;;;;;;;;0.00;97.50;;;;;;5066497;28;19909;-68
2022/01/07 09:01:46;;;;;;;;;;;0.00;97.30;;;;;;5066005;28;20144;-67
2022/01/07 09:04:12;;;;;;;;;;;0.10;97.30;;;;;;5063369;28;19916;-73
2022/01/07 09:06:38;;;;;;;;;;;0.10;97.20;;;;;;5044445;28;19909;-76
2022/01/07 09:09:04;;;;;;;;;;;0.20;97.20;;;;;;5028440;28;19920;-75
2022/01/07 09:11:29;;;;;;;;;;;0.20;97.00;;;;;;5044903;28;19920;-75
2022/01/07 09:13:58;;;;;;;;;;;0.20;96.90;;;;;;5044929;28;20143;-75
2022/01/07 09:16:25;;;;;;;;;;;0.30;96.80;;;;;;5028439;28;19909;-72
2022/01/07 09:18:51;;;;;;;;;;;0.40;96.50;;;;;;5034112;28;19972;-73
2022/01/07 09:21:18;;;;;;;;;;;0.40;96.50;;;;;;5044306;28;19909;-73
2022/01/07 09:23:43;;;;;;;;;;;0.40;96.70;;;;;;5044423;28;19909;-71
2022/01/07 09:26:09;;;;;;;;;;;0.40;96.50;;;;;;5044848;28;19909;-71
2022/01/07 09:28:35;;;;;;;;;;;0.50;96.40;;;;;;5044257;28;19916;-72
2022/01/07 09:31:01;;;;;;;;;;;0.60;96.20;;;;;;5027246;28;19975;-71
2022/01/07 09:33:27;;;;;;;;;;;0.60;96.20;;;;;;5044576;28;20136;-71
2022/01/07 09:35:53;;;;;;;;;;;0.70;95.90;;;;;;5043740;28;19913;-71
2022/01/07 09:38:18;;;;;;;;;;;0.70;95.90;;;;;;5062774;28;19971;-65
2022/01/07 09:40:44;;;;;;;;;;;0.70;96.10;;;;;;5063656;28;19940;-75
2022/01/07 09:43:13;;;;;;;;;;;0.70;95.90;;;;;;5065045;28;19915;-74
2022/01/07 09:45:39;;;;;;;;;;;0.70;96.00;;;;;;5046302;28;19947;-75
2022/01/07 09:48:05;;;;;;;;;;;0.70;96.10;;;;;;5062307;28;20142;-68
2022/01/07 09:50:31;;;;;;;;;;;0.70;95.80;;;;;;5064252;28;20250;-73
2022/01/07 09:52:57;;;;;;;;;;;0.80;95.90;;;;;;5063893;28;19988;-67
2022/01/07 09:55:23;;;;;;;;;;;0.80;95.70;;;;;;5059534;28;20208;-68
2022/01/07 09:57:49;;;;;;;;;;;0.80;95.70;;;;;;5062817;28;19909;-67
2022/01/07 10:00:14;;;;;;;;;;;0.80;95.80;;;;;;5064561;28;19979;-70
2022/01/07 10:03:00;;;;;;;;;;;0.90;95.80;;;;;;5064881;28;19916;-70
2022/01/07 10:05:25;;;;;;;;;;;0.90;95.60;;;;;;5064546;28;19908;-70
2022/01/07 10:07:51;;;;;;;;;;;0.90;95.60;;;;;;5064519;28;20223;-72
2022/01/07 10:10:18;;;;;;;;;;;0.90;95.60;;;;;;5064837;28;19913;-69
2022/01/07 10:12:48;;;;;;;;;;;0.90;95.40;;;;;;5064671;28;20119;-69
2022/01/07 10:15:16;;;;;;;;;;;0.90;95.40;;;;;;5064433;28;19913;-70
2022/01/07 10:17:42;;;;;;;;;;;0.90;95.50;;;;;;5064189;28;19915;-73
2022/01/07 10:20:08;;;;;;;;;;;1.00;95.40;;;;;;5060471;28;19950;-68
2022/01/07 10:22:55;;;;;;;;;;;1.10;94.80;;;;;;5063803;28;19913;-70
2022/01/07 10:25:22;;;;;;;;;;;1.20;94.80;;;;;;5064470;28;19908;-69
2022/01/07 10:27:48;;;;;;;;;;;1.30;94.50;;;;;;5063694;28;19908;-67
2022/01/07 10:30:15;;;;;;;;;;;1.30;94.40;;;;;;5064155;28;19935;-67
2022/01/07 10:32:41;;;;;;;;;;;1.40;93.80;;;;;;5064382;28;19908;-67
2022/01/07 10:35:07;;;;;;;;;;;1.50;94.00;;;;;;5064049;28;19908;-67
2022/01/07 10:37:34;;;;;;;;;;;1.50;93.70;;;;;;5064359;28;19909;-68
2022/01/07 10:40:00;;;;;;;;;;;1.60;93.80;;;;;;5064553;28;20107;-68
2022/01/07 10:42:26;;;;;;;;;;;1.60;93.80;;;;;;5062056;28;19917;-69
2022/01/07 10:45:02;;;;;;;;;;;1.70;93.40;;;;;;5063671;28;19976;-68
2022/01/07 10:47:28;;;;;;;;;;;1.70;93.30;;;;;;5063221;28;20124;-68
2022/01/07 10:50:12;;;;;;;;;;;1.70;93.10;;;;;;5063215;28;19919;-68
2022/01/07 10:52:38;;;;;;;;;;;1.70;93.10;;;;;;5063987;28;20322;-68
2022/01/07 10:55:11;;;;;;;;;;;1.80;92.90;;;;;;5063554;28;19936;-68
2022/01/07 10:57:44;;;;;;;;;;;1.80;93.00;;;;;;5064141;28;19915;-68
2022/01/07 11:00:18;;;;;;;;;;;1.90;93.10;;;;;;5064165;28;19908;-68
2022/01/07 11:02:45;;;;;;;;;;;1.80;92.90;;;;;;5062675;28;19936;-69
2022/01/07 11:05:10;;;;;;;;;;;1.90;93.10;;;;;;5064280;28;19908;-55
2022/01/07 11:07:36;;;;;;;;;;;1.90;93.10;;;;;;5076178;28;20227;-68
2022/01/07 11:10:06;;;;;;;;;;;2.10;93.00;;;;;;5063924;28;19940;-68
2022/01/07 11:12:32;;;;;;;;;;;2.10;92.50;;;;;;5082439;28;19908;-68
2022/01/07 11:14:58;;;;;;;;;;;2.10;92.40;;;;;;5082796;28;19912;-68
2022/01/07 11:17:24;;;;;;;;;;;2.00;92.40;;;;;;5083579;28;20211;-68
2022/01/07 11:20:00;;;;;;;;;;;2.00;92.20;;;;;;5072544;28;19909;-68
2022/01/07 11:22:26;;;;;;;;;;;1.90;92.60;;;;;;5062316;28;19908;-74
2022/01/07 11:24:59;;;;;;;;;;;1.80;92.70;;;;;;5062204;28;20154;-68
2022/01/07 11:27:26;;;;;;;;;;;1.80;92.80;;;;;;5063745;28;19909;-68
2022/01/07 11:30:11;;;;;;;;;;;1.80;92.80;;;;;;5062389;28;20116;-68
2022/01/07 11:32:38;;;;;;;;;;;1.70;92.80;;;;;;5063264;28;19909;-68
2022/01/07 11:35:19;;;;;;;;;;;1.60;93.20;;;;;;5063092;28;19909;-69
2022/01/07 11:37:52;;;;;;;;;;;1.60;93.20;;;;;;5063026;28;19909;-68
2022/01/07 11:40:33;;;;;;;;;;;1.60;93.20;;;;;;5063354;28;19909;-68
2022/01/07 11:43:04;;;;;;;;;;;1.60;93.20;;;;;;5063153;28;19916;-68
2022/01/07 11:45:32;;;;;;;;;;;1.60;93.30;;;;;;5062759;28;19985;-67
2022/01/07 11:47:58;;;;;;;;;;;1.60;93.50;;;;;;5062711;28;20261;-68
2022/01/07 11:50:24;;;;;;;;;;;1.60;93.40;;;;;;5052180;28;19914;-68
2022/01/07 11:53:04;;;;;;;;;;;1.70;93.50;;;;;;5051806;28;20131;-68
2022/01/07 11:55:33;;;;;;;;;;;1.70;92.90;;;;;;5043145;28;19909;-68
2022/01/07 11:58:03;;;;;;;;;;;1.70;93.20;;;;;;5043426;28;19909;-69
2022/01/07 12:00:58;;;;;;;;;;;1.70;93.10;;;;;;5050013;28;19971;-67
2022/01/07 12:03:33;;;;;;;;;;;1.70;93.20;;;;;;5054870;28;19909;-68
2022/01/07 12:06:00;;;;;;;;;;;1.80;93.20;;;;;;5045434;28;19956;-69
2022/01/07 12:08:41;;;;;;;;;;;1.70;93.10;;;;;;5043117;28;19909;-68
2022/01/07 12:11:08;;;;;;;;;;;1.80;93.00;;;;;;5025518;28;19919;-69
2022/01/07 12:13:38;;;;;;;;;;;1.80;93.40;;;;;;5043084;28;19909;-69
2022/01/07 12:16:07;;;;;;;;;;;1.80;93.30;;;;;;5042717;28;19913;-69
2022/01/07 12:18:33;;;;;;;;;;;1.80;93.20;;;;;;5042917;28;19988;-68
2022/01/07 12:20:59;;;;;;;;;;;1.70;93.30;;;;;;5042903;28;19968;-69
2022/01/07 12:23:25;;;;;;;;;;;1.80;93.30;;;;;;5045620;28;19916;-68
2022/01/07 12:25:52;;;;;;;;;;;1.70;93.30;;;;;;5046976;28;19977;-68
2022/01/07 12:28:17;;;;;;;;;;;1.70;93.40;;;;;;5046986;28;19916;-69
2022/01/07 12:30:43;;;;;;;;;;;1.70;93.30;;;;;;5054390;28;19913;-68
2022/01/07 12:33:10;;;;;;;;;;;1.70;93.50;;;;;;5061198;28;19909;-68
2022/01/07 12:35:36;;;;;;;;;;;1.60;93.50;;;;;;5064560;28;19916;-68
2022/01/07 12:38:15;;;;;;;;;;;1.50;93.70;;;;;;5066099;28;20269;-68
2022/01/07 12:40:41;;;;;;;;;;;1.50;93.80;;;;;;5066243;28;19955;-68
2022/01/07 12:43:06;;;;;;;;;;;1.50;94.40;;;;;;5066678;28;19913;-69
2022/01/07 12:45:32;;;;;;;;;;;1.40;94.90;;;;;;5066229;28;19962;-71
2022/01/07 12:47:58;;;;;;;;;;;1.40;95.50;;;;;;5066423;28;20345;-69
2022/01/07 12:50:24;;;;;;;;;;;1.40;96.00;;;;;;5066339;28;19913;-70
2022/01/07 12:52:50;;;;;;;;;;;1.30;96.40;;;;;;5066096;28;19955;-70
2022/01/07 12:55:20;;;;;;;;;;;1.30;96.60;;;;;;5065935;28;19909;-70
2022/01/07 12:57:47;;;;;;;;;;;1.30;96.70;;;;;;5065932;28;20257;-70
2022/01/07 13:00:29;;;;;;;;;;;1.30;96.80;;;;;;5065709;28;19909;-71
2022/01/07 13:03:08;;;;;;;;;;;1.20;97.30;;;;;;5065733;28;19909;-73
2022/01/07 13:05:41;;;;;;;;;;;1.20;97.60;;;;;;5064514;28;19946;-72
2022/01/07 13:08:13;;;;;;;;;;;1.20;97.90;;;;;;5064441;28;19912;-71
2022/01/07 13:10:41;;;;;;;;;;;1.20;97.80;;;;;;5064918;28;20123;-71
2022/01/07 13:13:08;;;;;;;;;;;1.10;98.00;;;;;;5065303;28;19908;-67
2022/01/07 13:15:51;;;;;;;;;;;1.00;98.10;;;;;;5065496;28;20200;-65
2022/01/07 13:18:21;;;;;;;;;;;1.10;98.40;;;;;;5064619;28;19913;-65
2022/01/07 13:20:47;;;;;;;;;;;1.10;98.60;;;;;;5065330;28;19913;-73
2022/01/07 13:23:13;;;;;;;;;;;1.10;98.60;;;;;;5064189;28;19909;-73
2022/01/07 13:25:39;;;;;;;;;;;1.20;98.50;;;;;;5047605;28;20117;-66
2022/01/07 13:28:05;;;;;;;;;;;1.20;98.50;;;;;;5065443;28;19913;-66
2022/01/07 13:30:48;;;;;;;;;;;1.20;98.50;;;;;;5064392;28;19952;-71
2022/01/07 13:33:15;;;;;;;;;;;1.10;98.60;;;;;;5046688;28;19917;-71
2022/01/07 13:35:41;;;;;;;;;;;1.10;98.60;;;;;;5063684;28;19920;-70
2022/01/07 13:38:14;;;;;;;;;;;1.20;98.70;;;;;;5064180;28;20227;-70
2022/01/07 13:40:40;;;;;;;;;;;1.10;98.70;;;;;;5064189;28;19916;-71
2022/01/07 13:43:10;;;;;;;;;;;1.10;98.70;;;;;;5047695;28;20116;-67
2022/01/07 13:45:35;;;;;;;;;;;1.10;98.90;;;;;;5064877;28;19909;-65
2022/01/07 13:48:09;;;;;;;;;;;1.20;98.90;;;;;;5065122;28;19931;-65
2022/01/07 13:50:38;;;;;;;;;;;1.10;98.90;;;;;;5063724;28;19937;-65
2022/01/07 13:53:14;;;;;;;;;;;1.10;98.90;;;;;;5064947;28;19915;-65
2022/01/07 13:55:40;;;;;;;;;;;1.10;98.90;;;;;;5063753;28;19915;-65
2022/01/07 13:58:07;;;;;;;;;;;1.10;98.90;;;;;;5047383;28;20179;-66
2022/01/07 14:00:33;;;;;;;;;;;1.10;98.90;;;;;;5064927;28;19928;-66
2022/01/07 14:02:59;;;;;;;;;;;1.20;98.90;;;;;;5065185;28;19909;-66
2022/01/07 14:05:25;;;;;;;;;;;1.20;98.80;;;;;;5064582;28;19978;-66
2022/01/07 14:07:53;;;;;;;;;;;1.30;98.90;;;;;;5063955;28;19917;-67
2022/01/07 14:10:32;;;;;;;;;;;1.30;98.70;;;;;;5064976;28;20216;-66
2022/01/07 14:13:17;;;;;;;;;;;1.30;98.70;;;;;;5068253;28;19953;-67
2022/01/07 14:15:53;;;;;;;;;;;1.30;98.60;;;;;;5084546;28;20253;-67
2022/01/07 14:18:20;;;;;;;;;;;1.30;98.50;;;;;;5084714;28;20142;-66
2022/01/07 14:20:54;;;;;;;;;;;1.30;98.50;;;;;;5083448;28;19909;-67
2022/01/07 14:23:32;;;;;;;;;;;1.30;98.60;;;;;;5084140;28;20241;-67
2022/01/07 14:26:11;;;;;;;;;;;1.30;98.60;;;;;;5083974;28;19931;-67
2022/01/07 14:28:39;;;;;;;;;;;1.30;98.50;;;;;;5084443;28;19909;-67
2022/01/07 14:31:04;;;;;;;;;;;1.30;98.60;;;;;;5084183;28;19913;-67